aviador You're here:

YWLM Decoded Metar

WILLIAMTOWN ARP in _UNIDENTIFIED
Report Time2018-06-18 15:00:00
UTC Time2018-06-18 15:31:16
Flight Rules vfr VFR
Wind260° at 11 kt
W.Decomp.*RWY 30: 6.8 kt HW 8.7 kt LCW
W.Rank260° ranks 33
Current wind is above 260° avg. (7.5)
Visibility9999 m
Phenomena:N/A
Clouds:N/A
Expected CloudBase > 1,600 ft AGL from Temp-Dew spread
CeilingNone
Temp10°C (ISA -5)
Dew Point06°C (76% RH)
AAT5.1°C
QNH1018 hPa
Density Alt-604 ft
Elevation30 ft
Report Wrong Elevation
Raw Report
METAR YWLM 181500Z AUTO 26011KT 9999 // NCD 10/06 Q1018=

Extra information for YWLM:More info

Metar Taf Metar & Taf Last 4 Metars F.Rules Stats Wind Profile Meteogram Temp Stats Airport Information Weather charts Add Link Nearby VenuesMetar ALERT Operation Metar Decoded Social comments